This is the latest recevied weather packets stored in our database for station/object HK3BJ-16. If no packets are shown the sender has not sent any weather packets the latest 10 day(s).
| Time | Temp. | Humidity | Pressure | Rain* | Wind** | Luminosity | Snow |
|---|---|---|---|---|---|---|---|
| 1787633668 | 27.78° C | 47% | 1012 hPa | 0 mm | - | - | - |
| 1787632725 | 27.78° C | 47% | 1012 hPa | 0 mm | - | - | - |
| 1787631786 | 27.78° C | 47% | 1013 hPa | 0 mm | - | - | - |
| 1787630843 | 27.78° C | 47% | 1013 hPa | 0 mm | - | - | - |
| 1787629898 | 27.78° C | 47% | 1013 hPa | 0 mm | - | - | - |
| 1787628958 | 28.89° C | 42% | 1013 hPa | 0 mm | - | - | - |
| 1787628015 | 28.89° C | 42% | 1012 hPa | 0 mm | - | - | - |
| 1787627065 | 28.89° C | 42% | 1012 hPa | 0 mm | - | - | - |
| 1787626115 | 28.89° C | 42% | 1012 hPa | 0 mm | - | - | - |
| 1787625160 | 28.89° C | 42% | 1012 hPa | 0 mm | - | - | - |
| 1787623273 | 31.11° C | 37% | 1011 hPa | 0 mm | - | - | - |
| 1787622317 | 31.11° C | 37% | 1011 hPa | 0 mm | - | - | - |
| 1787620394 | 31.11° C | 37% | 1010 hPa | 0 mm | - | - | - |
| 1787619425 | 32.22° C | 35% | 1010 hPa | 0 mm | - | - | - |
| 1787618478 | 31.67° C | 35% | 1010 hPa | 0 mm | - | - | - |
| 1787617522 | 32.22° C | 35% | 1009 hPa | 0 mm | - | - | - |
| 1787616562 | 32.22° C | 35% | 1009 hPa | 0 mm | - | - | - |
| 1787615611 | 33.89° C | 31% | 1009 hPa | 0 mm | - | - | - |
| 1787614664 | 33.89° C | 31% | 1009 hPa | 0 mm | - | - | - |
| 1787613711 | 33.89° C | 31% | 1008 hPa | 0 mm | - | - | - |
| 1787612763 | 33.89° C | 31% | 1007 hPa | 0 mm | - | - | - |
| 1787611822 | 36.11° C | 28% | 1007 hPa | 0 mm | - | - | - |
| 1787610877 | 35° C | 31% | 1007 hPa | 0 mm | - | - | - |
| 1787609937 | 35° C | 31% | 1007 hPa | 0 mm | - | - | - |
| 1787608978 | 35° C | 31% | 1006 hPa | 0 mm | - | - | - |
* Rain latest hour (hover to see other rain measurements)
** Current wind speed in m/s (hover to see current wind gust speed)